Time;durP1;ratioP1;P1;durP2;ratioP2;P2;SDS_P1;SDS_P2;PMS_P1;PMS_P2;Temp;Humidity;BMP_temperature;BMP_pressure;BME280_temperature;BME280_humidity;BME280_pressure;Samples;Min_cycle;Max_cycle;Signal;HPM_P1;HPM_P2
2021/11/21 00:01:35;;;;;;;62.90;33.78;;;8.50;99.90;;;;;;5016294;28;20065;-88
2021/11/21 00:04:01;;;;;;;67.25;34.78;;;8.50;99.90;;;;;;5020367;28;20065;-88
2021/11/21 00:06:27;;;;;;;60.28;31.35;;;8.60;99.90;;;;;;5038582;28;20026;-87
2021/11/21 00:08:53;;;;;;;57.33;31.42;;;8.50;99.90;;;;;;5034849;28;20060;-87
2021/11/21 00:11:20;;;;;;;57.47;31.38;;;8.50;99.90;;;;;;5018373;28;20030;-87
2021/11/21 00:13:48;;;;;;;63.10;33.92;;;8.50;99.90;;;;;;5023102;28;20013;-88
2021/11/21 00:16:14;;;;;;;64.05;34.60;;;8.50;99.90;;;;;;5023320;28;20026;-88
2021/11/21 00:18:40;;;;;;;63.08;34.25;;;8.50;99.90;;;;;;5022196;28;20037;-88
2021/11/21 00:21:05;;;;;;;62.65;33.33;;;8.50;99.90;;;;;;5024552;28;20021;-87
2021/11/21 00:23:31;;;;;;;65.75;34.70;;;8.50;99.90;;;;;;5028792;28;20038;-88
2021/11/21 00:25:56;;;;;;;64.18;35.38;;;8.50;99.90;;;;;;5022778;28;20052;-88
2021/11/21 00:28:22;;;;;;;57.17;31.55;;;8.50;99.90;;;;;;5031794;28;20025;-88
2021/11/21 00:30:48;;;;;;;63.95;34.00;;;8.50;99.90;;;;;;5031614;28;20033;-88
2021/11/21 00:33:13;;;;;;;62.38;33.35;;;8.50;99.90;;;;;;5026584;28;20045;-88
2021/11/21 00:35:39;;;;;;;64.45;33.30;;;8.50;99.90;;;;;;5033295;28;20034;-88
2021/11/21 00:38:04;;;;;;;64.78;33.72;;;8.50;99.90;;;;;;5025763;28;20129;-88
2021/11/21 00:40:31;;;;;;;61.70;32.97;;;8.50;99.90;;;;;;5012681;28;20140;-88
2021/11/21 00:42:57;;;;;;;66.25;33.58;;;8.50;99.90;;;;;;5022689;28;20155;-89
2021/11/21 00:45:23;;;;;;;59.53;32.00;;;8.50;99.90;;;;;;5030950;28;20038;-88
2021/11/21 00:47:49;;;;;;;63.92;31.65;;;8.50;99.90;;;;;;5032117;28;20086;-89
2021/11/21 00:50:16;;;;;;;63.15;32.08;;;8.50;99.90;;;;;;5034907;28;20034;-88
2021/11/21 00:52:42;;;;;;;61.85;33.72;;;8.50;99.90;;;;;;5033855;28;20633;-88
2021/11/21 00:55:14;;;;;;;64.50;33.10;;;8.50;99.90;;;;;;5029832;28;20048;-88
2021/11/21 00:57:42;;;;;;;63.72;33.63;;;8.40;99.90;;;;;;5027210;28;20036;-88
2021/11/21 01:00:10;;;;;;;62.28;31.90;;;8.40;99.90;;;;;;5030169;28;20029;-88
2021/11/21 01:02:38;;;;;;;66.05;33.45;;;8.40;99.90;;;;;;5035071;28;20033;-87
2021/11/21 01:05:06;;;;;;;59.67;30.98;;;8.40;99.90;;;;;;5033916;28;20029;-87
2021/11/21 01:07:33;;;;;;;63.53;31.65;;;8.40;99.90;;;;;;5035746;28;20005;-88
2021/11/21 01:09:59;;;;;;;66.68;34.40;;;8.40;99.90;;;;;;5028242;28;20033;-88
2021/11/21 01:12:25;;;;;;;65.68;32.35;;;8.40;99.90;;;;;;5034316;28;20083;-88
2021/11/21 01:14:50;;;;;;;61.38;30.83;;;8.40;99.90;;;;;;5024408;28;20037;-88
2021/11/21 01:17:16;;;;;;;61.33;31.88;;;8.50;99.90;;;;;;5032595;28;20021;-88
2021/11/21 01:19:44;;;;;;;60.78;31.63;;;8.50;99.90;;;;;;5020122;28;20045;-87
2021/11/21 01:22:10;;;;;;;59.55;30.23;;;8.50;99.90;;;;;;5015009;28;20022;-88
2021/11/21 01:24:35;;;;;;;54.35;29.50;;;8.50;99.90;;;;;;5034293;28;20104;-88
2021/11/21 01:27:01;;;;;;;59.10;31.27;;;8.40;99.90;;;;;;5034937;28;20025;-87
2021/11/21 01:29:27;;;;;;;64.80;32.20;;;8.50;99.90;;;;;;5033438;28;20033;-88
2021/11/21 01:31:52;;;;;;;61.95;32.90;;;8.50;99.90;;;;;;5034046;28;20033;-88
2021/11/21 01:34:18;;;;;;;57.72;30.30;;;8.40;99.90;;;;;;5029835;28;20030;-87
2021/11/21 01:36:44;;;;;;;62.33;31.60;;;8.40;99.90;;;;;;5024058;28;20080;-87
2021/11/21 01:39:10;;;;;;;59.80;30.52;;;8.40;99.90;;;;;;5028306;28;20057;-88
2021/11/21 01:41:36;;;;;;;61.00;31.42;;;8.50;99.90;;;;;;5037465;28;20063;-87
2021/11/21 01:44:03;;;;;;;63.53;31.00;;;8.50;99.90;;;;;;5053529;28;20017;-88
2021/11/21 01:46:33;;;;;;;62.53;30.90;;;8.50;99.90;;;;;;5051171;28;20049;-87
2021/11/21 01:48:59;;;;;;;66.68;31.48;;;8.50;99.90;;;;;;5034237;28;20025;-87
2021/11/21 01:51:24;;;;;;;54.20;28.42;;;8.50;99.90;;;;;;5050377;28;20090;-87
2021/11/21 01:53:50;;;;;;;63.28;32.65;;;8.50;99.90;;;;;;5054007;28;20098;-87
2021/11/21 01:56:15;;;;;;;63.30;32.25;;;8.50;99.90;;;;;;5053171;28;20025;-88
2021/11/21 01:58:41;;;;;;;63.45;32.53;;;8.50;99.90;;;;;;5036840;28;20545;-87
2021/11/21 02:01:06;;;;;;;63.08;31.60;;;8.50;99.90;;;;;;5037042;28;20051;-87
2021/11/21 02:03:32;;;;;;;61.22;29.90;;;8.50;99.90;;;;;;5054503;28;20032;-87
2021/11/21 02:05:59;;;;;;;66.25;31.73;;;8.50;99.90;;;;;;5050985;28;20025;-87
2021/11/21 02:08:25;;;;;;;65.22;31.70;;;8.50;99.90;;;;;;5037158;28;20071;-87
2021/11/21 02:10:57;;;;;;;60.15;29.70;;;8.50;99.90;;;;;;5044534;28;20025;-87
2021/11/21 02:13:22;;;;;;;61.07;31.10;;;8.50;99.90;;;;;;5036842;28;20017;-87
2021/11/21 02:15:48;;;;;;;64.75;31.38;;;8.50;99.90;;;;;;5054063;28;20621;-86
2021/11/21 02:18:14;;;;;;;59.13;30.00;;;8.50;99.90;;;;;;5036326;28;20052;-87
2021/11/21 02:20:39;;;;;;;67.55;32.20;;;8.50;99.90;;;;;;5031658;28;20055;-86
2021/11/21 02:23:07;;;;;;;60.15;29.08;;;8.60;99.90;;;;;;5030266;28;20056;-86
2021/11/21 02:25:34;;;;;;;66.63;30.90;;;8.60;99.90;;;;;;5046006;28;20029;-87
2021/11/21 02:28:00;;;;;;;63.33;30.80;;;8.60;99.90;;;;;;5036025;28;20054;-87
2021/11/21 02:30:25;;;;;;;69.88;32.20;;;8.60;99.90;;;;;;5035428;28;20405;-87
2021/11/21 02:32:52;;;;;;;62.38;30.45;;;8.60;99.90;;;;;;5035836;28;20420;-87
2021/11/21 02:35:19;;;;;;;68.05;31.25;;;8.60;99.90;;;;;;5030723;28;20029;-87
2021/11/21 02:37:45;;;;;;;67.63;32.03;;;8.50;99.90;;;;;;5036481;28;20032;-87
2021/11/21 02:40:11;;;;;;;64.15;30.88;;;8.50;99.90;;;;;;5036040;28;20048;-87
2021/11/21 02:42:37;;;;;;;61.35;29.70;;;8.50;99.90;;;;;;5032471;28;20072;-87
2021/11/21 02:45:06;;;;;;;67.22;30.17;;;8.50;99.90;;;;;;5033982;28;20065;-87
2021/11/21 02:47:32;;;;;;;75.20;33.63;;;8.50;99.90;;;;;;5035545;28;20025;-88
2021/11/21 02:50:04;;;;;;;59.85;29.95;;;8.50;99.90;;;;;;5016563;28;20033;-87
2021/11/21 02:52:31;;;;;;;65.78;29.85;;;8.50;99.90;;;;;;5023000;28;20033;-87
2021/11/21 02:54:58;;;;;;;60.58;29.90;;;8.50;99.90;;;;;;5024269;28;20445;-87
2021/11/21 02:57:26;;;;;;;65.45;29.98;;;8.50;99.90;;;;;;5026895;28;20384;-87
2021/11/21 02:59:52;;;;;;;68.38;33.55;;;8.50;99.90;;;;;;5037178;28;20024;-87
2021/11/21 03:02:18;;;;;;;63.13;29.77;;;8.40;99.90;;;;;;5033819;28;20078;-86
2021/11/21 03:04:55;;;;;;;66.13;28.92;;;8.40;99.90;;;;;;5019824;28;20560;-87
2021/11/21 03:07:21;;;;;;;68.32;30.20;;;8.50;99.90;;;;;;5063412;28;20068;-86
2021/11/21 03:09:51;;;;;;;77.53;32.42;;;8.40;99.90;;;;;;5055442;28;20499;-87
2021/11/21 03:12:21;;;;;;;67.72;30.02;;;8.40;99.90;;;;;;5047055;28;20017;-87
2021/11/21 03:14:48;;;;;;;68.15;30.80;;;8.50;99.90;;;;;;5019750;28;20021;-87
2021/11/21 03:17:14;;;;;;;70.70;32.50;;;8.50;99.90;;;;;;5030701;28;20048;-86
2021/11/21 03:19:40;;;;;;;65.55;29.27;;;8.50;99.90;;;;;;5035990;28;20439;-87
2021/11/21 03:22:05;;;;;;;64.35;28.40;;;8.50;99.90;;;;;;5030607;28;20018;-86
2021/11/21 03:24:31;;;;;;;64.28;29.30;;;8.50;99.90;;;;;;5033678;28;20030;-86
2021/11/21 03:26:57;;;;;;;71.40;29.70;;;8.50;99.90;;;;;;5027653;28;20063;-87
2021/11/21 03:29:22;;;;;;;71.22;30.50;;;8.50;99.90;;;;;;5019591;28;20033;-87
2021/11/21 03:31:49;;;;;;;67.57;30.17;;;8.50;99.90;;;;;;5039571;28;20045;-86
2021/11/21 03:34:14;;;;;;;63.75;30.45;;;8.50;99.90;;;;;;5052968;28;20031;-86
2021/11/21 03:36:41;;;;;;;73.57;32.03;;;8.60;99.90;;;;;;5047447;28;20044;-86
2021/11/21 03:39:08;;;;;;;69.95;29.88;;;8.60;99.90;;;;;;5052925;28;20439;-86
2021/11/21 03:41:36;;;;;;;67.63;30.70;;;8.50;99.90;;;;;;5034787;28;20036;-86
2021/11/21 03:44:04;;;;;;;70.75;31.63;;;8.60;99.90;;;;;;5023565;28;20120;-86
2021/11/21 03:46:30;;;;;;;69.20;30.52;;;8.60;99.90;;;;;;5028209;28;20026;-87
2021/11/21 03:48:55;;;;;;;66.55;30.52;;;8.60;99.90;;;;;;5015443;28;20043;-87
2021/11/21 03:51:21;;;;;;;68.35;29.83;;;8.60;99.90;;;;;;5032347;28;20416;-86
2021/11/21 03:53:46;;;;;;;70.53;30.60;;;8.60;99.90;;;;;;5035321;28;20028;-86
2021/11/21 03:56:12;;;;;;;66.35;28.75;;;8.60;99.90;;;;;;5034419;28;20033;-86
2021/11/21 03:58:38;;;;;;;74.82;32.88;;;8.60;99.90;;;;;;5039523;28;20093;-86
2021/11/21 04:01:05;;;;;;;68.35;30.83;;;8.60;99.90;;;;;;5038807;28;20511;-86
2021/11/21 04:03:30;;;;;;;67.47;31.42;;;8.60;99.90;;;;;;5034292;28;20037;-86
2021/11/21 04:05:56;;;;;;;74.70;32.50;;;8.60;99.90;;;;;;5033487;28;20365;-86
2021/11/21 04:08:21;;;;;;;65.85;30.05;;;8.60;99.90;;;;;;5030251;28;20031;-86
2021/11/21 04:10:47;;;;;;;76.32;31.35;;;8.70;99.90;;;;;;5031828;28;20018;-87
2021/11/21 04:13:13;;;;;;;80.80;34.42;;;8.70;99.90;;;;;;5029676;28;20115;-86
2021/11/21 04:15:38;;;;;;;74.57;32.33;;;8.60;99.90;;;;;;5031672;28;20366;-86
2021/11/21 04:18:04;;;;;;;69.57;30.23;;;8.70;99.90;;;;;;5024490;28;20017;-86
2021/11/21 04:20:29;;;;;;;69.97;30.58;;;8.70;99.90;;;;;;5034299;28;20489;-87
2021/11/21 04:22:55;;;;;;;77.15;32.00;;;8.70;99.90;;;;;;5026342;28;20470;-87
2021/11/21 04:25:21;;;;;;;81.07;33.60;;;8.70;99.90;;;;;;5036852;28;20120;-86
2021/11/21 04:27:46;;;;;;;90.82;36.17;;;8.70;99.90;;;;;;5050106;28;20079;-87
2021/11/21 04:30:14;;;;;;;77.18;34.72;;;8.70;99.90;;;;;;5048930;28;20073;-87
2021/11/21 04:32:40;;;;;;;81.15;33.28;;;8.70;99.90;;;;;;5038434;28;20025;-86
2021/11/21 04:35:13;;;;;;;83.80;33.67;;;8.70;99.90;;;;;;5032523;28;20052;-87
2021/11/21 04:37:39;;;;;;;75.72;32.33;;;8.70;99.90;;;;;;5037225;28;20025;-87
2021/11/21 04:40:07;;;;;;;77.88;32.42;;;8.70;99.90;;;;;;5046019;28;20535;-87
2021/11/21 04:42:32;;;;;;;84.85;35.58;;;8.70;99.90;;;;;;5021686;28;20036;-88
2021/11/21 04:44:58;;;;;;;89.97;36.67;;;8.70;99.90;;;;;;5038267;28;20025;-89
2021/11/21 04:47:24;;;;;;;85.32;36.38;;;8.70;99.90;;;;;;5038469;28;20392;-89
2021/11/21 04:49:50;;;;;;;88.72;35.13;;;8.70;99.90;;;;;;5038325;28;20497;-90
2021/11/21 04:52:15;;;;;;;86.05;36.63;;;8.70;99.90;;;;;;5038353;28;20013;-89
2021/11/21 04:54:41;;;;;;;89.78;35.75;;;8.70;99.90;;;;;;5034934;28;20434;-91
2021/11/21 04:57:08;;;;;;;96.07;36.10;;;8.80;99.90;;;;;;5035549;28;20093;-90
2021/11/21 04:59:34;;;;;;;85.30;33.85;;;8.70;99.90;;;;;;5046899;28;20056;-90
2021/11/21 05:02:00;;;;;;;98.78;36.67;;;8.70;99.90;;;;;;5026474;28;20108;-90
2021/11/21 05:04:27;;;;;;;85.85;34.17;;;8.80;99.90;;;;;;5028405;28;20052;-91
2021/11/21 05:06:53;;;;;;;91.00;36.63;;;8.70;99.90;;;;;;5024713;28;20021;-92
2021/11/21 05:09:19;;;;;;;87.90;33.90;;;8.70;99.90;;;;;;5018789;28;20168;-90
2021/11/21 05:11:45;;;;;;;86.15;33.47;;;8.70;99.90;;;;;;5038548;28;20049;-93
2021/11/21 05:14:12;;;;;;;104.97;37.55;;;8.70;99.90;;;;;;5038112;28;20037;-91
2021/11/21 05:16:38;;;;;;;98.70;36.75;;;8.70;99.90;;;;;;5038606;28;20025;-92
2021/11/21 05:19:04;;;;;;;86.18;33.88;;;8.70;99.90;;;;;;5047913;28;20025;-92
2021/11/21 05:21:30;;;;;;;79.47;31.33;;;8.70;99.90;;;;;;5036874;28;20040;-91
2021/11/21 05:23:55;;;;;;;70.90;30.50;;;8.70;99.90;;;;;;5031639;28;20488;-91
2021/11/21 05:26:23;;;;;;;78.15;31.13;;;8.70;99.90;;;;;;5055042;28;20025;-91
2021/11/21 05:28:48;;;;;;;71.80;31.45;;;8.70;99.90;;;;;;5023626;28;20033;-91
2021/11/21 05:31:14;;;;;;;76.60;30.92;;;8.70;99.90;;;;;;5034477;28;20108;-92
2021/11/21 05:33:40;;;;;;;78.75;31.98;;;8.70;99.90;;;;;;5034804;28;20021;-92
2021/11/21 05:36:05;;;;;;;70.70;28.67;;;8.70;99.90;;;;;;5034166;28;20021;-91
2021/11/21 05:38:31;;;;;;;71.90;28.77;;;8.70;99.90;;;;;;5023732;28;20033;-91
2021/11/21 05:40:56;;;;;;;71.00;28.63;;;8.70;99.90;;;;;;5034018;28;20049;-91
2021/11/21 05:43:22;;;;;;;77.07;28.80;;;8.70;99.90;;;;;;5038462;28;20025;-93
2021/11/21 05:45:47;;;;;;;61.47;25.77;;;8.70;99.90;;;;;;5039884;28;20115;-92
2021/11/21 05:48:13;;;;;;;64.90;25.67;;;8.70;99.90;;;;;;5038511;28;20484;-92
2021/11/21 05:50:39;;;;;;;62.28;25.60;;;8.70;99.90;;;;;;5039075;28;20032;-92
2021/11/21 05:53:05;;;;;;;61.30;24.88;;;8.70;99.90;;;;;;5042431;28;20550;-93
2021/11/21 05:55:31;;;;;;;52.53;23.42;;;8.70;99.90;;;;;;5034283;28;20087;-90
2021/11/21 05:57:56;;;;;;;59.60;23.58;;;8.80;99.90;;;;;;5033246;28;20028;-90
2021/11/21 06:00:24;;;;;;;57.75;21.65;;;8.70;99.90;;;;;;5038141;28;20029;-90
2021/11/21 06:02:50;;;;;;;54.15;20.77;;;8.80;99.90;;;;;;5038270;28;20028;-91
2021/11/21 06:05:17;;;;;;;48.05;19.73;;;8.80;99.90;;;;;;5036109;28;20051;-90
2021/11/21 06:07:43;;;;;;;51.75;20.05;;;8.80;99.90;;;;;;5027312;28;20083;-92
2021/11/21 06:10:09;;;;;;;42.72;17.63;;;8.80;99.90;;;;;;5028650;28;20052;-92
2021/11/21 06:12:35;;;;;;;48.60;18.02;;;8.80;99.90;;;;;;5039612;28;20032;-92
2021/11/21 06:15:02;;;;;;;44.15;18.67;;;8.80;99.90;;;;;;5032606;28;20041;-91
2021/11/21 06:17:28;;;;;;;47.65;18.02;;;8.80;99.90;;;;;;5034738;28;20017;-91
2021/11/21 06:19:55;;;;;;;42.13;17.48;;;8.80;99.90;;;;;;5034580;28;20501;-90
2021/11/21 06:22:20;;;;;;;46.17;17.98;;;8.90;99.90;;;;;;5033879;28;20043;-92
2021/11/21 06:24:46;;;;;;;41.03;16.95;;;8.90;99.90;;;;;;5035231;28;20029;-91
2021/11/21 06:27:12;;;;;;;42.42;16.38;;;8.80;99.90;;;;;;5036681;28;20112;-90
2021/11/21 06:29:38;;;;;;;37.35;15.52;;;8.80;99.90;;;;;;5036423;28;20037;-90
2021/11/21 06:32:04;;;;;;;37.63;15.40;;;8.80;99.90;;;;;;5046164;28;20025;-90
2021/11/21 06:34:30;;;;;;;37.45;14.88;;;8.80;99.90;;;;;;5037445;28;20542;-90
2021/11/21 06:36:56;;;;;;;42.03;14.20;;;8.90;99.90;;;;;;5035664;28;20033;-89
2021/11/21 06:39:22;;;;;;;43.22;16.23;;;8.80;99.90;;;;;;5032694;28;20049;-91
2021/11/21 06:41:47;;;;;;;42.78;15.23;;;8.90;99.90;;;;;;5019947;28;20014;-91
2021/11/21 06:44:13;;;;;;;39.13;15.02;;;8.80;99.90;;;;;;5032865;28;20593;-91
2021/11/21 06:46:39;;;;;;;40.00;16.45;;;8.80;99.90;;;;;;5035631;28;20035;-90
2021/11/21 06:49:06;;;;;;;42.10;16.35;;;8.80;99.90;;;;;;5037160;28;20033;-89
2021/11/21 06:51:32;;;;;;;41.75;16.50;;;8.80;99.90;;;;;;5038568;28;20453;-89
2021/11/21 06:53:57;;;;;;;43.35;16.13;;;8.80;99.90;;;;;;5031904;28;20030;-89
2021/11/21 06:56:24;;;;;;;36.45;15.80;;;8.80;99.90;;;;;;5033638;28;20052;-88
2021/11/21 06:58:50;;;;;;;39.30;14.85;;;8.80;99.90;;;;;;5038155;28;20455;-89
2021/11/21 07:01:15;;;;;;;37.05;14.38;;;8.80;99.90;;;;;;5038146;28;20060;-88
2021/11/21 07:03:41;;;;;;;34.63;14.25;;;8.80;99.90;;;;;;5045153;28;20443;-89
2021/11/21 07:06:07;;;;;;;31.83;12.50;;;8.80;99.90;;;;;;5049732;28;20009;-89
2021/11/21 07:08:33;;;;;;;26.30;11.40;;;8.80;99.90;;;;;;5036442;28;20025;-88
2021/11/21 07:10:58;;;;;;;24.30;10.60;;;8.70;99.90;;;;;;5035914;28;20048;-88
2021/11/21 07:13:24;;;;;;;20.73;9.30;;;8.80;99.90;;;;;;5035862;28;20073;-88
2021/11/21 07:15:51;;;;;;;25.02;9.50;;;8.70;99.90;;;;;;5026686;28;20193;-88
2021/11/21 07:18:16;;;;;;;17.33;7.05;;;8.80;99.90;;;;;;5033249;28;20040;-87
2021/11/21 07:20:42;;;;;;;20.98;7.38;;;8.70;99.90;;;;;;5035975;28;20033;-88
2021/11/21 07:23:10;;;;;;;17.17;6.60;;;8.70;99.90;;;;;;5035651;28;20087;-88
2021/11/21 07:25:36;;;;;;;23.25;7.25;;;8.70;99.90;;;;;;5034866;28;20033;-89
2021/11/21 07:28:02;;;;;;;15.57;5.85;;;8.70;99.90;;;;;;5040389;28;20506;-89
2021/11/21 07:30:27;;;;;;;17.05;5.80;;;8.70;99.90;;;;;;5027729;28;20034;-89
2021/11/21 07:32:53;;;;;;;15.85;5.85;;;8.70;99.90;;;;;;5044631;28;20017;-89
2021/11/21 07:35:23;;;;;;;15.35;6.47;;;8.70;99.90;;;;;;5016262;28;20075;-89
2021/11/21 07:37:49;;;;;;;12.75;5.38;;;8.70;99.90;;;;;;5051561;28;20501;-89
2021/11/21 07:40:16;;;;;;;15.85;6.90;;;8.70;99.90;;;;;;5032110;28;20136;-89
2021/11/21 07:42:43;;;;;;;15.95;6.93;;;8.80;99.90;;;;;;5048182;28;20112;-87
2021/11/21 07:45:10;;;;;;;14.63;5.93;;;8.80;99.90;;;;;;5032663;28;20107;-88
2021/11/21 07:47:36;;;;;;;17.30;6.80;;;8.80;99.90;;;;;;5019153;28;20056;-87
2021/11/21 07:50:03;;;;;;;23.20;7.25;;;8.80;99.90;;;;;;5035527;28;20474;-89
2021/11/21 07:52:28;;;;;;;21.33;7.90;;;8.80;99.90;;;;;;5031310;28;20085;-89
2021/11/21 07:54:54;;;;;;;18.50;7.45;;;8.80;99.90;;;;;;5033685;28;20092;-88
2021/11/21 07:57:20;;;;;;;19.48;8.07;;;8.80;99.90;;;;;;5038953;28;20548;-87
2021/11/21 07:59:45;;;;;;;21.52;8.18;;;8.80;99.90;;;;;;5032431;28;20122;-88
2021/11/21 08:02:12;;;;;;;21.63;7.82;;;8.80;99.90;;;;;;5032725;28;20040;-88
2021/11/21 08:04:38;;;;;;;19.25;8.82;;;8.80;99.90;;;;;;5036053;28;20033;-88
2021/11/21 08:07:05;;;;;;;23.75;8.70;;;8.80;99.90;;;;;;5036635;28;20051;-88
2021/11/21 08:09:31;;;;;;;19.92;8.60;;;8.80;99.90;;;;;;5026431;28;20049;-88
2021/11/21 08:11:56;;;;;;;23.75;9.02;;;8.90;99.90;;;;;;5039197;28;20024;-88
2021/11/21 08:14:22;;;;;;;23.67;8.43;;;9.00;99.90;;;;;;5038908;28;20116;-88
2021/11/21 08:16:47;;;;;;;23.52;9.30;;;9.00;99.90;;;;;;5039764;28;20040;-88
2021/11/21 08:19:13;;;;;;;24.15;9.60;;;9.00;99.90;;;;;;5039703;28;20033;-88
2021/11/21 08:21:39;;;;;;;29.30;9.65;;;9.00;99.90;;;;;;5057213;28;20025;-88
2021/11/21 08:24:09;;;;;;;25.95;10.13;;;9.10;99.90;;;;;;5039570;28;20025;-87
2021/11/21 08:26:36;;;;;;;20.65;7.68;;;9.10;99.90;;;;;;5032024;28;20476;-87
2021/11/21 08:29:03;;;;;;;20.92;7.60;;;9.10;99.90;;;;;;5035422;28;20037;-87
2021/11/21 08:31:28;;;;;;;17.45;6.63;;;9.10;99.90;;;;;;5043381;28;20033;-87
2021/11/21 08:33:54;;;;;;;21.35;5.60;;;9.20;99.90;;;;;;5037888;28;20373;-89
2021/11/21 08:36:19;;;;;;;13.82;4.78;;;9.20;99.90;;;;;;5039047;28;20032;-88
2021/11/21 08:38:45;;;;;;;11.73;3.85;;;9.30;99.90;;;;;;5039567;28;20036;-87
2021/11/21 08:41:10;;;;;;;12.75;3.08;;;9.30;99.90;;;;;;5038538;28;20052;-87
2021/11/21 08:43:36;;;;;;;18.58;3.83;;;9.30;99.90;;;;;;5035628;28;20033;-88
2021/11/21 08:46:01;;;;;;;12.07;2.20;;;9.30;99.90;;;;;;5032106;28;20373;-87
2021/11/21 08:48:27;;;;;;;12.85;1.80;;;9.30;99.90;;;;;;5037460;28;20033;-87
2021/11/21 08:50:53;;;;;;;14.27;1.27;;;9.30;99.90;;;;;;5032362;28;20554;-86
2021/11/21 08:53:19;;;;;;;10.05;1.33;;;9.40;99.90;;;;;;5035612;28;20025;-87
2021/11/21 08:55:45;;;;;;;11.50;1.42;;;9.40;99.90;;;;;;5039615;28;20029;-86
2021/11/21 08:58:11;;;;;;;11.02;1.48;;;9.40;99.90;;;;;;5031758;28;20085;-87
2021/11/21 09:00:36;;;;;;;7.25;1.17;;;9.40;99.90;;;;;;5034549;28;20121;-87
2021/11/21 09:03:02;;;;;;;8.07;1.10;;;9.40;99.90;;;;;;5037825;28;20061;-86
2021/11/21 09:05:27;;;;;;;12.20;1.20;;;9.40;99.90;;;;;;5054669;28;20017;-87
2021/11/21 09:07:53;;;;;;;9.30;0.80;;;9.40;99.90;;;;;;5020594;28;20033;-87
2021/11/21 09:10:20;;;;;;;10.27;1.10;;;9.40;99.90;;;;;;5034223;28;20516;-87
2021/11/21 09:12:46;;;;;;;5.35;0.90;;;9.40;99.90;;;;;;5052830;28;20508;-87
2021/11/21 09:15:15;;;;;;;12.75;1.23;;;9.50;99.90;;;;;;5029334;28;20057;-88
2021/11/21 09:17:46;;;;;;;7.07;0.60;;;9.50;99.90;;;;;;5041250;28;20063;-92
2021/11/21 09:20:12;;;;;;;8.00;0.70;;;9.50;99.90;;;;;;5045200;28;20036;-92
2021/11/21 09:22:38;;;;;;;10.23;0.50;;;9.50;99.90;;;;;;5044096;28;20029;-86
2021/11/21 09:25:04;;;;;;;10.48;0.70;;;9.50;99.90;;;;;;5031614;28;20027;-86
2021/11/21 09:27:30;;;;;;;8.18;0.80;;;9.50;99.90;;;;;;5046777;28;20033;-87
2021/11/21 09:29:55;;;;;;;8.45;0.70;;;9.50;99.90;;;;;;5035477;28;20121;-87
2021/11/21 09:32:21;;;;;;;9.82;0.60;;;9.50;99.90;;;;;;5034784;28;20033;-87
2021/11/21 09:34:46;;;;;;;5.93;0.73;;;9.50;99.90;;;;;;5032295;28;20021;-86
2021/11/21 09:37:15;;;;;;;6.55;0.68;;;9.50;99.90;;;;;;5027561;28;20059;-86
2021/11/21 09:39:40;;;;;;;7.38;0.57;;;9.50;99.90;;;;;;5031987;28;20068;-86
2021/11/21 09:42:06;;;;;;;8.68;0.40;;;9.50;99.90;;;;;;5031487;28;20048;-86
2021/11/21 09:44:32;;;;;;;7.90;0.60;;;9.50;99.90;;;;;;5029276;28;20124;-86
2021/11/21 09:46:58;;;;;;;16.73;1.30;;;9.50;99.90;;;;;;5031779;28;20021;-86
2021/11/21 09:49:26;;;;;;;9.60;0.82;;;9.50;99.90;;;;;;5036988;28;20087;-86
2021/11/21 09:51:51;;;;;;;8.82;0.90;;;9.50;99.90;;;;;;5031543;28;20025;-86
2021/11/21 09:54:18;;;;;;;8.95;0.60;;;9.50;99.90;;;;;;5032557;28;20128;-87
2021/11/21 09:56:44;;;;;;;6.45;0.80;;;9.60;99.90;;;;;;5027704;28;20057;-86
2021/11/21 09:59:10;;;;;;;12.13;0.70;;;9.50;99.90;;;;;;5030926;28;20057;-86
2021/11/21 10:01:42;;;;;;;9.90;1.52;;;9.50;99.90;;;;;;5034458;28;20548;-86
2021/11/21 10:04:10;;;;;;;12.32;2.13;;;9.50;99.90;;;;;;5032382;28;20461;-86
2021/11/21 10:06:45;;;;;;;16.48;1.27;;;9.50;99.90;;;;;;5030879;28;20520;-86
2021/11/21 10:09:12;;;;;;;9.00;1.27;;;9.50;99.90;;;;;;5031033;28;20037;-86
2021/11/21 10:11:58;;;;;;;13.02;1.13;;;9.60;99.90;;;;;;5025660;28;20017;-85
2021/11/21 10:14:24;;;;;;;8.15;0.60;;;9.60;99.90;;;;;;5034891;28;20052;-86
2021/11/21 10:16:49;;;;;;;8.60;0.73;;;9.60;99.90;;;;;;5046309;28;20052;-86
2021/11/21 10:19:15;;;;;;;9.70;0.50;;;9.60;99.90;;;;;;5030953;28;20112;-87
2021/11/21 10:21:52;;;;;;;8.40;0.55;;;9.60;99.90;;;;;;5044347;28;20453;-86
2021/11/21 10:24:25;;;;;;;12.55;0.60;;;9.60;99.90;;;;;;5041987;28;20060;-86
2021/11/21 10:27:07;;;;;;;8.25;0.50;;;9.60;99.90;;;;;;5034901;28;20029;-86
2021/11/21 10:29:38;;;;;;;8.50;0.90;;;9.60;99.90;;;;;;5038660;28;20127;-85
2021/11/21 10:32:15;;;;;;;9.25;0.55;;;9.50;99.90;;;;;;5035557;28;20037;-86
2021/11/21 10:34:55;;;;;;;13.27;0.70;;;9.40;99.90;;;;;;5043964;28;20094;-85
2021/11/21 10:37:28;;;;;;;29.48;1.40;;;9.40;99.90;;;;;;5039539;28;20048;-87
2021/11/21 10:40:04;;;;;;;9.57;0.40;;;9.30;99.90;;;;;;5037289;28;20049;-87
2021/11/21 10:42:31;;;;;;;10.60;0.60;;;9.20;99.90;;;;;;5032343;28;20068;-87
2021/11/21 10:44:57;;;;;;;11.80;0.50;;;9.20;99.90;;;;;;5033834;28;20533;-85
2021/11/21 10:47:23;;;;;;;12.65;0.90;;;9.10;99.90;;;;;;5034095;28;20744;-86
2021/11/21 10:49:52;;;;;;;6.53;0.60;;;9.10;99.90;;;;;;5043976;28;20037;-86
2021/11/21 10:52:23;;;;;;;8.75;0.40;;;9.10;99.90;;;;;;5036958;28;20412;-85
2021/11/21 10:54:57;;;;;;;9.68;0.68;;;9.00;99.90;;;;;;5033177;28;20049;-85
2021/11/21 10:57:29;;;;;;;8.05;0.32;;;8.90;99.90;;;;;;5051833;28;20086;-86
2021/11/21 10:59:58;;;;;;;10.20;0.30;;;8.90;99.90;;;;;;5044805;28;20034;-87
2021/11/21 11:02:40;;;;;;;11.52;0.52;;;8.90;99.90;;;;;;5022200;28;20583;-85
2021/11/21 11:05:14;;;;;;;8.00;0.65;;;8.90;99.90;;;;;;5044509;28;20464;-87
2021/11/21 11:07:47;;;;;;;8.68;0.60;;;8.90;99.90;;;;;;5038915;28;20029;-87
2021/11/21 11:10:18;;;;;;;12.82;0.65;;;8.90;99.90;;;;;;5040452;28;20025;-87
2021/11/21 11:12:53;;;;;;;9.55;0.50;;;8.80;99.90;;;;;;5055463;28;20130;-87
2021/11/21 11:15:20;;;;;;;10.60;0.60;;;8.80;99.90;;;;;;5033848;28;20048;-85
2021/11/21 11:17:46;;;;;;;13.93;0.50;;;8.80;99.90;;;;;;5038311;28;20055;-86
2021/11/21 11:20:14;;;;;;;11.35;0.88;;;8.70;99.90;;;;;;5028026;28;20432;-87
2021/11/21 11:22:41;;;;;;;9.80;0.70;;;8.70;99.90;;;;;;5046634;28;20163;-86
2021/11/21 11:25:18;;;;;;;11.07;0.70;;;8.70;99.90;;;;;;5037198;28;20583;-87
2021/11/21 11:28:09;;;;;;;6.43;0.47;;;8.60;99.90;;;;;;5038502;28;20032;-86
2021/11/21 11:30:36;;;;;;;12.93;0.93;;;8.60;99.90;;;;;;5032567;28;20557;-87
2021/11/21 11:33:19;;;;;;;6.65;0.50;;;8.60;99.90;;;;;;5035854;28;20025;-87
2021/11/21 11:35:51;;;;;;;6.68;0.50;;;8.70;99.90;;;;;;5029418;28;20025;-87
2021/11/21 11:38:26;;;;;;;13.07;1.00;;;8.70;99.90;;;;;;5028538;28;20041;-86
2021/11/21 11:41:04;;;;;;;9.07;0.50;;;8.80;99.90;;;;;;5027590;28;20493;-86
2021/11/21 11:43:38;;;;;;;8.20;0.50;;;8.90;99.90;;;;;;5054553;28;20373;-88
2021/11/21 11:46:23;;;;;;;10.35;0.88;;;9.00;99.90;;;;;;5030002;28;20032;-87
2021/11/21 11:49:03;;;;;;;16.40;1.42;;;9.10;99.90;;;;;;5034508;28;20025;-89
2021/11/21 11:51:33;;;;;;;8.85;0.55;;;9.30;99.90;;;;;;5035741;28;20024;-88
2021/11/21 11:54:24;;;;;;;11.60;0.50;;;9.60;99.90;;;;;;5045535;28;20033;-88
2021/11/21 11:57:00;;;;;;;11.98;1.10;;;9.90;99.90;;;;;;5026204;28;20032;-88
2021/11/21 11:59:32;;;;;;;7.95;0.50;;;10.10;99.90;;;;;;5043339;28;20044;-88
2021/11/21 12:02:07;;;;;;;15.23;0.85;;;10.10;99.90;;;;;;5030396;28;20029;-87
2021/11/21 12:04:32;;;;;;;13.32;0.50;;;10.10;99.90;;;;;;5045519;28;20459;-88
2021/11/21 12:07:21;;;;;;;11.70;0.50;;;10.20;99.90;;;;;;5048914;28;20072;-88
2021/11/21 12:09:58;;;;;;;9.05;1.13;;;10.20;99.90;;;;;;5049992;28;20044;-88
2021/11/21 12:12:51;;;;;;;7.75;0.45;;;10.20;99.90;;;;;;5029369;28;20117;-88
2021/11/21 12:15:27;;;;;;;11.52;0.30;;;10.30;99.90;;;;;;5043274;28;20063;-87
2021/11/21 12:17:53;;;;;;;15.32;0.70;;;10.30;99.90;;;;;;5050545;28;20036;-87
2021/11/21 12:20:46;;;;;;;9.18;1.38;;;10.20;99.90;;;;;;5032488;28;20047;-88
2021/11/21 12:23:13;;;;;;;4.80;0.55;;;10.30;99.90;;;;;;5038929;28;20017;-88
2021/11/21 12:25:40;;;;;;;6.40;0.50;;;10.20;99.90;;;;;;5035447;28;20150;-87
2021/11/21 12:28:06;;;;;;;9.00;0.40;;;10.20;99.90;;;;;;5031045;28;20027;-87
2021/11/21 12:30:37;;;;;;;12.35;0.50;;;10.20;99.90;;;;;;5024937;28;20044;-88
2021/11/21 12:33:06;;;;;;;14.60;0.73;;;10.20;99.90;;;;;;5032415;28;20062;-87
2021/11/21 12:35:33;;;;;;;7.15;0.57;;;10.20;99.90;;;;;;5043504;28;20033;-86
2021/11/21 12:38:23;;;;;;;8.18;0.43;;;10.20;99.90;;;;;;5029945;28;20060;-87
2021/11/21 12:40:59;;;;;;;5.47;0.40;;;10.20;99.90;;;;;;5004304;28;20073;-87
2021/11/21 12:43:25;;;;;;;7.70;0.65;;;10.10;99.90;;;;;;5005334;28;20022;-87
2021/11/21 12:45:53;;;;;;;7.03;0.60;;;10.10;99.90;;;;;;5008855;28;20057;-87